createdAt,value
2023-05-12T00:02:03.217Z,48.93
2023-05-12T00:04:30.911Z,48.89
2023-05-12T00:06:58.579Z,48.96
2023-05-12T00:09:26.176Z,49.31
2023-05-12T00:11:53.812Z,49.51
2023-05-12T00:14:21.457Z,49.47
2023-05-12T00:16:51.861Z,49.29
2023-05-12T00:19:20.151Z,49.29
2023-05-12T00:21:47.817Z,49.41
2023-05-12T00:24:15.489Z,49.49
2023-05-12T00:26:43.089Z,49.82
2023-05-12T00:29:10.688Z,49.78
2023-05-12T00:31:38.660Z,49.94
2023-05-12T00:34:06.352Z,49.89
2023-05-12T00:36:36.573Z,50.18
2023-05-12T00:39:04.602Z,50.36
2023-05-12T00:41:32.220Z,50.80
2023-05-12T00:43:59.807Z,51.75
2023-05-12T00:46:27.453Z,51.94
2023-05-12T00:48:55.334Z,51.90
2023-05-12T00:51:22.924Z,52.04
2023-05-12T00:53:50.805Z,52.19
2023-05-12T00:56:19.216Z,52.85
2023-05-12T00:58:47.212Z,53.07
2023-05-12T01:01:14.901Z,53.31
2023-05-12T01:03:42.597Z,53.48
2023-05-12T01:06:12.465Z,53.29
2023-05-12T01:08:40.082Z,53.18
2023-05-12T01:11:07.710Z,53.63
2023-05-12T01:13:36.391Z,53.88
2023-05-12T01:16:04.292Z,54.04
2023-05-12T01:18:31.934Z,54.60
2023-05-12T01:20:59.578Z,54.70
2023-05-12T01:23:28.065Z,55.02
2023-05-12T01:25:55.701Z,55.09
2023-05-12T01:28:23.350Z,55.16
2023-05-12T01:30:51.121Z,55.40
2023-05-12T01:33:18.741Z,55.76
2023-05-12T01:35:47.471Z,55.76
2023-05-12T01:38:15.046Z,56.05
2023-05-12T01:40:42.667Z,56.07
2023-05-12T01:43:10.278Z,56.35
2023-05-12T01:45:38.736Z,56.30
2023-05-12T01:48:06.452Z,56.71
2023-05-12T01:50:34.232Z,56.81
2023-05-12T01:53:01.901Z,57.31
2023-05-12T01:55:29.498Z,57.67
2023-05-12T01:57:57.097Z,57.93
2023-05-12T02:00:24.761Z,58.02
2023-05-12T02:02:52.451Z,58.14
2023-05-12T02:05:20.239Z,58.49
2023-05-12T02:07:48.575Z,58.56
2023-05-12T02:10:16.400Z,58.81
2023-05-12T02:12:44.266Z,58.82
2023-05-12T02:15:12.009Z,58.99
2023-05-12T02:17:39.633Z,59.18
2023-05-12T02:20:08.186Z,59.33
2023-05-12T02:22:35.750Z,59.47
2023-05-12T02:25:03.548Z,59.58
2023-05-12T02:27:32.602Z,59.82
2023-05-12T02:30:00.286Z,59.99
2023-05-12T02:32:30.923Z,60.15
2023-05-12T02:34:58.534Z,60.19
2023-05-12T02:37:26.208Z,60.15
2023-05-12T02:39:53.902Z,60.35
2023-05-12T02:42:21.610Z,60.24
2023-05-12T02:44:49.197Z,60.64
2023-05-12T02:47:16.769Z,60.59
2023-05-12T02:49:44.469Z,60.67
2023-05-12T02:52:14.216Z,60.63
2023-05-12T02:54:41.840Z,60.88
2023-05-12T02:57:10.871Z,60.84
2023-05-12T02:59:38.488Z,60.70
2023-05-12T03:02:06.202Z,60.74
2023-05-12T03:04:34.260Z,60.85
2023-05-12T03:07:01.853Z,60.94
2023-05-12T03:09:29.525Z,60.78
2023-05-12T03:11:57.097Z,60.82
2023-05-12T03:14:26.257Z,61.03
2023-05-12T03:16:53.921Z,60.87
2023-05-12T03:19:21.832Z,61.15
2023-05-12T03:21:49.426Z,61.02
2023-05-12T03:24:17.135Z,60.93
2023-05-12T03:26:44.719Z,61.02
2023-05-12T03:29:12.328Z,61.07
2023-05-12T03:31:40.244Z,61.23
2023-05-12T03:34:07.877Z,61.36
2023-05-12T03:36:35.478Z,61.49
2023-05-12T03:39:03.368Z,61.56
2023-05-12T03:41:30.962Z,61.62
2023-05-12T03:43:58.534Z,61.68
2023-05-12T03:46:26.382Z,61.60
2023-05-12T03:48:53.999Z,61.63
2023-05-12T03:51:21.610Z,61.57
2023-05-12T03:53:49.229Z,61.80
2023-05-12T03:56:17.215Z,61.81
2023-05-12T03:58:47.380Z,61.90
2023-05-12T04:01:15.027Z,62.01
2023-05-12T04:03:43.387Z,61.62
2023-05-12T04:06:10.990Z,61.98
2023-05-12T04:08:41.071Z,61.79
2023-05-12T04:11:09.596Z,61.75
2023-05-12T04:13:37.210Z,61.74
2023-05-12T04:16:05.544Z,61.73
2023-05-12T04:18:33.195Z,61.80
2023-05-12T04:21:00.805Z,61.73
2023-05-12T04:23:29.135Z,61.69
2023-05-12T04:25:56.856Z,61.79
2023-05-12T04:28:24.544Z,61.82
2023-05-12T04:30:52.164Z,61.77
2023-05-12T04:33:19.724Z,61.64
2023-05-12T04:35:47.353Z,61.60
2023-05-12T04:38:15.009Z,61.65
2023-05-12T04:40:42.628Z,61.38
2023-05-12T04:43:59.996Z,61.43
2023-05-12T04:46:00.055Z,61.39
2023-05-12T04:48:29.184Z,61.31
2023-05-12T04:50:59.723Z,61.17
2023-05-12T04:53:27.987Z,61.25
2023-05-12T04:55:56.732Z,60.84
2023-05-12T04:58:24.417Z,60.87
2023-05-12T05:00:53.091Z,60.82
2023-05-12T05:03:20.815Z,60.57
2023-05-12T05:05:49.191Z,60.73
2023-05-12T05:08:16.871Z,60.57
2023-05-12T05:10:44.447Z,60.41
2023-05-12T05:13:12.085Z,60.59
2023-05-12T05:15:39.714Z,60.28
2023-05-12T05:18:07.489Z,60.26
2023-05-12T05:20:35.187Z,59.92
2023-05-12T05:23:03.425Z,59.81
2023-05-12T05:25:31.033Z,59.58
2023-05-12T05:27:58.627Z,59.84
2023-05-12T05:30:26.312Z,59.64
2023-05-12T05:32:54.005Z,59.27
2023-05-12T05:35:21.891Z,59.52
2023-05-12T05:37:50.885Z,59.15
2023-05-12T05:40:18.508Z,59.10
2023-05-12T05:42:46.461Z,58.99
2023-05-12T05:45:14.372Z,58.77
2023-05-12T05:47:42.256Z,58.74
2023-05-12T05:50:10.282Z,58.45
2023-05-12T05:52:37.954Z,57.89
2023-05-12T05:55:05.885Z,57.99
2023-05-12T05:57:33.593Z,57.44
2023-05-12T06:00:01.431Z,57.28
2023-05-12T06:02:29.324Z,57.28
2023-05-12T06:04:57.198Z,56.87
2023-05-12T06:07:24.955Z,56.58
2023-05-12T06:09:55.790Z,56.74
2023-05-12T06:12:23.405Z,56.56
2023-05-12T06:14:51.354Z,56.04
2023-05-12T06:17:19.054Z,56.07
2023-05-12T06:19:48.318Z,56.35
2023-05-12T06:22:15.939Z,56.27
2023-05-12T06:24:43.522Z,55.80
2023-05-12T06:27:11.146Z,54.97
2023-05-12T06:29:38.743Z,55.06
2023-05-12T06:32:06.669Z,55.23
2023-05-12T06:34:34.323Z,54.62
2023-05-12T06:37:01.926Z,54.02
2023-05-12T06:39:29.550Z,53.88
2023-05-12T06:41:57.154Z,53.38
2023-05-12T06:44:24.777Z,53.13
2023-05-12T06:46:52.704Z,52.76
2023-05-12T06:49:20.464Z,52.90
2023-05-12T06:51:48.114Z,52.87
2023-05-12T06:54:15.745Z,52.81
2023-05-12T06:56:43.380Z,52.30
2023-05-12T06:59:11.042Z,52.53
2023-05-12T07:01:38.759Z,52.16
2023-05-12T07:04:07.902Z,52.06
2023-05-12T07:06:35.634Z,51.49
2023-05-12T07:09:04.037Z,51.55
2023-05-12T07:11:31.676Z,51.46
2023-05-12T07:13:59.278Z,51.16
2023-05-12T07:16:26.931Z,50.61
2023-05-12T07:18:54.618Z,49.94
2023-05-12T07:21:22.513Z,49.51
2023-05-12T07:23:50.120Z,49.58
2023-05-12T07:26:18.648Z,49.27
2023-05-12T07:28:46.369Z,49.65
2023-05-12T07:31:14.027Z,49.49
2023-05-12T07:33:41.993Z,49.29
2023-05-12T07:36:09.944Z,48.94
2023-05-12T07:38:37.552Z,48.88
2023-05-12T07:41:05.192Z,49.03
2023-05-12T07:43:32.805Z,48.98
2023-05-12T07:46:01.171Z,48.16
2023-05-12T07:48:28.811Z,48.12
2023-05-12T07:50:57.274Z,48.06
2023-05-12T07:53:24.880Z,47.64
2023-05-12T07:55:52.490Z,46.63
2023-05-12T07:58:20.130Z,46.06
2023-05-12T08:00:47.897Z,45.90
2023-05-12T08:03:16.589Z,45.16
2023-05-12T08:05:44.464Z,44.99
2023-05-12T08:08:16.718Z,45.69
2023-05-12T08:10:44.436Z,45.70
2023-05-12T08:13:12.100Z,45.73
2023-05-12T08:15:39.772Z,45.80
2023-05-12T08:18:09.875Z,45.48
2023-05-12T08:20:37.683Z,45.10
2023-05-12T08:23:05.275Z,44.32
2023-05-12T08:25:34.971Z,44.23
2023-05-12T08:28:03.164Z,44.31
2023-05-12T08:30:30.758Z,43.87
2023-05-12T08:32:58.426Z,43.83
2023-05-12T08:35:26.035Z,44.11
2023-05-12T08:37:53.696Z,44.44
2023-05-12T08:40:22.309Z,44.42
2023-05-12T08:43:18.497Z,43.85
2023-05-12T08:45:46.084Z,44.49
2023-05-12T08:48:15.745Z,41.30
2023-05-12T08:50:43.427Z,41.07
2023-05-12T08:53:12.192Z,41.18
2023-05-12T08:55:40.376Z,40.60
2023-05-12T08:58:09.659Z,40.24
2023-05-12T09:00:37.382Z,39.98
2023-05-12T09:03:05.988Z,39.40
2023-05-12T09:05:34.009Z,38.91
2023-05-12T09:08:01.668Z,39.62
2023-05-12T09:13:03.599Z,38.69
2023-05-12T09:15:35.916Z,38.90
2023-05-12T09:18:03.622Z,37.44
2023-05-12T09:20:32.146Z,36.66
2023-05-12T09:23:11.308Z,36.41
2023-05-12T09:25:38.878Z,36.34
2023-05-12T09:28:06.473Z,35.94
2023-05-12T09:30:38.444Z,35.04
2023-05-12T09:33:10.228Z,35.49
2023-05-12T09:35:39.343Z,36.19
2023-05-12T09:38:10.670Z,36.63
2023-05-12T09:40:38.440Z,34.48
2023-05-12T09:43:06.254Z,35.75
2023-05-12T09:45:35.387Z,36.25
2023-05-12T09:48:12.886Z,35.12
2023-05-12T09:50:48.515Z,34.68
2023-05-12T09:53:17.875Z,34.63
2023-05-12T09:55:46.251Z,32.94
2023-05-12T09:58:16.441Z,30.81
2023-05-12T10:01:12.848Z,29.38
2023-05-12T10:03:32.280Z,30.05
2023-05-12T10:06:01.749Z,30.64
2023-05-12T10:08:35.094Z,30.23
2023-05-12T10:11:02.715Z,29.39
2023-05-12T10:13:30.813Z,30.24
2023-05-12T10:15:58.422Z,30.82
2023-05-12T10:18:26.235Z,30.94
2023-05-12T10:20:54.138Z,30.71
2023-05-12T10:23:21.789Z,30.33
2023-05-12T10:25:49.458Z,29.77
2023-05-12T10:28:17.483Z,29.20
2023-05-12T10:30:45.134Z,27.33
2023-05-12T10:33:13.252Z,27.18
2023-05-12T10:35:42.632Z,26.78
2023-05-12T10:38:11.721Z,27.44
2023-05-12T10:40:53.122Z,27.88
2023-05-12T10:43:41.601Z,27.75
2023-05-12T10:46:12.408Z,27.66
2023-05-12T10:48:56.911Z,27.37
2023-05-12T10:51:29.640Z,26.82
2023-05-12T10:53:59.124Z,27.80
2023-05-12T10:56:42.694Z,28.30
2023-05-12T10:59:18.094Z,27.24
2023-05-12T11:02:04.317Z,26.86
2023-05-12T11:04:42.027Z,26.57
2023-05-12T11:07:11.726Z,26.35
2023-05-12T11:09:53.137Z,26.49
2023-05-12T11:12:30.279Z,25.45
2023-05-12T11:14:59.681Z,25.96
2023-05-12T11:17:27.456Z,26.43
2023-05-12T11:19:55.702Z,26.14
2023-05-12T11:22:23.713Z,25.99
2023-05-12T11:24:52.686Z,26.41
2023-05-12T11:27:23.141Z,25.85
2023-05-12T11:30:01.916Z,24.55
2023-05-12T11:32:30.142Z,25.76
2023-05-12T11:35:09.888Z,26.43
2023-05-12T11:37:39.667Z,26.61
2023-05-12T11:40:18.030Z,25.87
2023-05-12T11:42:48.791Z,26.19
2023-05-12T11:45:24.734Z,26.26
2023-05-12T11:47:53.548Z,26.64
2023-05-12T11:50:23.018Z,26.17
2023-05-12T11:52:51.571Z,25.47
2023-05-12T11:55:23.980Z,25.47
2023-05-12T11:58:01.831Z,25.97
2023-05-12T12:00:35.812Z,25.58
2023-05-12T12:03:14.033Z,24.95
2023-05-12T12:05:43.389Z,24.18
2023-05-12T12:08:15.653Z,24.08
2023-05-12T12:10:44.645Z,24.00
2023-05-12T12:13:21.987Z,25.04
2023-05-12T12:15:50.128Z,24.85
2023-05-12T12:18:18.917Z,24.05
2023-05-12T12:20:46.855Z,24.10
2023-05-12T12:23:14.622Z,24.64
2023-05-12T12:25:43.507Z,24.40
2023-05-12T12:28:11.110Z,23.57
2023-05-12T12:30:38.884Z,23.52
2023-05-12T12:33:06.560Z,22.99
2023-05-12T12:35:34.224Z,22.70
2023-05-12T12:38:01.831Z,23.16
2023-05-12T12:40:29.449Z,23.25
2023-05-12T12:42:57.086Z,23.33
2023-05-12T12:45:25.163Z,22.85
2023-05-12T12:47:54.843Z,23.22
2023-05-12T12:50:25.057Z,23.90
2023-05-12T12:52:53.585Z,24.07
2023-05-12T12:55:21.820Z,24.35
2023-05-12T12:57:49.737Z,24.51
2023-05-12T13:00:17.712Z,24.25
2023-05-12T13:02:45.657Z,24.32
2023-05-12T13:05:13.402Z,23.88
2023-05-12T13:07:41.222Z,23.98
2023-05-12T13:10:09.664Z,24.13
2023-05-12T13:12:37.398Z,24.66
2023-05-12T13:15:05.983Z,24.58
2023-05-12T13:17:33.694Z,23.43
2023-05-12T13:20:02.129Z,23.76
2023-05-12T13:22:29.839Z,24.21
2023-05-12T13:24:57.489Z,24.13
2023-05-12T13:27:25.118Z,24.46
2023-05-12T13:29:52.796Z,23.88
2023-05-12T13:32:20.892Z,23.26
2023-05-12T13:34:48.957Z,23.73
2023-05-12T13:37:16.574Z,23.64
2023-05-12T13:39:44.247Z,23.79
2023-05-12T13:42:11.855Z,24.50
2023-05-12T13:44:39.485Z,24.37
2023-05-12T13:47:10.365Z,23.52
2023-05-12T13:49:38.000Z,23.75
2023-05-12T13:52:06.443Z,23.81
2023-05-12T13:54:34.075Z,23.44
2023-05-12T13:57:04.022Z,23.25
2023-05-12T13:59:31.907Z,23.00
2023-05-12T14:01:59.673Z,22.82
2023-05-12T14:04:27.336Z,23.61
2023-05-12T14:06:55.415Z,22.60
2023-05-12T14:09:23.260Z,21.60
2023-05-12T14:11:50.879Z,21.77
2023-05-12T14:14:18.530Z,21.74
2023-05-12T14:16:46.205Z,22.24
2023-05-12T14:19:13.943Z,22.42
2023-05-12T14:21:42.051Z,22.38
2023-05-12T14:24:10.110Z,21.99
2023-05-12T14:26:37.685Z,21.93
2023-05-12T14:29:06.915Z,21.39
2023-05-12T14:31:35.816Z,21.85
2023-05-12T14:34:04.321Z,22.31
2023-05-12T14:36:32.224Z,22.65
2023-05-12T14:38:59.817Z,22.90
2023-05-12T14:41:27.432Z,23.11
2023-05-12T14:43:55.140Z,23.57
2023-05-12T14:46:24.993Z,23.71
2023-05-12T14:48:52.776Z,23.97
2023-05-12T14:51:20.409Z,24.46
2023-05-12T14:53:48.783Z,24.84
2023-05-12T14:56:16.356Z,25.06
2023-05-12T14:58:43.946Z,24.58
2023-05-12T15:01:12.480Z,24.18
2023-05-12T15:03:40.268Z,23.81
2023-05-12T15:06:08.431Z,23.62
2023-05-12T15:08:36.359Z,23.10
2023-05-12T15:11:04.407Z,22.75
2023-05-12T15:13:32.040Z,22.21
2023-05-12T15:15:59.837Z,22.33
2023-05-12T15:18:27.490Z,21.72
2023-05-12T15:20:55.262Z,22.12
2023-05-12T15:23:23.043Z,22.07
2023-05-12T15:25:50.644Z,21.83
2023-05-12T15:28:18.331Z,22.24
2023-05-12T15:30:45.984Z,22.40
2023-05-12T15:33:13.656Z,22.68
2023-05-12T15:35:41.708Z,22.21
2023-05-12T15:38:09.327Z,22.49
2023-05-12T15:40:37.300Z,22.75
2023-05-12T15:43:05.148Z,22.82
2023-05-12T15:45:33.006Z,22.71
2023-05-12T15:48:00.922Z,22.99
2023-05-12T15:50:28.542Z,23.41
2023-05-12T15:52:56.528Z,23.35
2023-05-12T15:55:24.319Z,23.00
2023-05-12T15:57:53.680Z,23.76
2023-05-12T16:00:22.614Z,23.53
2023-05-12T16:02:50.518Z,23.37
2023-05-12T16:05:18.404Z,23.37
2023-05-12T16:07:47.212Z,23.29
2023-05-12T16:10:14.946Z,23.00
2023-05-12T16:12:42.728Z,22.76
2023-05-12T16:15:11.404Z,22.97
2023-05-12T16:17:39.029Z,23.12
2023-05-12T16:20:07.841Z,23.27
2023-05-12T16:22:35.478Z,23.16
2023-05-12T16:25:04.887Z,23.48
2023-05-12T16:27:33.629Z,23.54
2023-05-12T16:30:01.239Z,23.97
2023-05-12T16:34:57.022Z,24.18
2023-05-12T16:37:24.657Z,24.28
2023-05-12T16:39:52.281Z,24.41
2023-05-12T16:42:20.203Z,25.06
2023-05-12T16:44:48.060Z,25.36
2023-05-12T16:47:15.700Z,25.68
2023-05-12T16:49:43.420Z,25.84
2023-05-12T16:52:12.405Z,26.10
2023-05-12T16:54:40.277Z,26.52
2023-05-12T16:57:07.902Z,26.40
2023-05-12T16:59:36.429Z,26.13
2023-05-12T17:02:04.313Z,26.45
2023-05-12T17:04:32.347Z,26.72
2023-05-12T17:06:59.936Z,26.86
2023-05-12T17:09:27.519Z,26.99
2023-05-12T17:11:55.361Z,27.09
2023-05-12T17:14:23.494Z,27.27
2023-05-12T17:16:51.675Z,27.44
2023-05-12T17:19:19.389Z,27.87
2023-05-12T17:21:47.094Z,27.83
2023-05-12T17:24:14.729Z,27.80
2023-05-12T17:26:42.353Z,27.96
2023-05-12T17:29:09.964Z,28.16
2023-05-12T17:31:37.971Z,28.59
2023-05-12T17:34:05.806Z,28.62
2023-05-12T17:36:33.778Z,28.70
2023-05-12T17:39:02.279Z,28.73
2023-05-12T17:41:29.891Z,28.88
2023-05-12T17:43:57.521Z,28.94
2023-05-12T17:46:25.178Z,29.07
2023-05-12T17:48:52.795Z,29.32
2023-05-12T17:51:20.379Z,29.45
2023-05-12T17:53:47.972Z,29.69
2023-05-12T17:56:15.655Z,29.81
2023-05-12T17:58:43.217Z,29.92
2023-05-12T18:01:10.855Z,30.17
2023-05-12T18:03:38.586Z,30.45
2023-05-12T18:06:06.513Z,30.62
2023-05-12T18:08:34.090Z,31.12
2023-05-12T18:11:01.743Z,31.21
2023-05-12T18:13:29.335Z,31.43
2023-05-12T18:15:56.974Z,31.46
2023-05-12T18:18:26.110Z,31.78
2023-05-12T18:20:53.819Z,32.08
2023-05-12T18:23:21.550Z,32.10
2023-05-12T18:25:49.224Z,32.43
2023-05-12T18:28:16.948Z,32.61
2023-05-12T18:30:44.627Z,32.97
2023-05-12T18:33:12.654Z,32.95
2023-05-12T18:35:40.751Z,33.29
2023-05-12T18:38:08.452Z,33.49
2023-05-12T18:40:36.223Z,33.63
2023-05-12T18:43:03.873Z,33.99
2023-05-12T18:45:31.569Z,34.26
2023-05-12T18:47:59.277Z,34.43
2023-05-12T18:50:27.094Z,34.86
2023-05-12T18:52:54.828Z,34.96
2023-05-12T18:55:22.667Z,35.17
2023-05-12T18:57:50.417Z,35.46
2023-05-12T19:00:18.367Z,35.95
2023-05-12T19:02:47.243Z,35.69
2023-05-12T19:05:14.931Z,36.07
2023-05-12T19:07:42.563Z,36.30
2023-05-12T19:10:10.530Z,36.24
2023-05-12T19:12:38.381Z,36.53
2023-05-12T19:15:06.577Z,36.60
2023-05-12T19:17:34.372Z,36.68
2023-05-12T19:20:02.022Z,36.93
2023-05-12T19:22:29.614Z,37.09
2023-05-12T19:24:57.263Z,37.28
2023-05-12T19:27:27.068Z,37.23
2023-05-12T19:29:55.115Z,37.40
2023-05-12T19:32:23.223Z,37.56
2023-05-12T19:34:51.430Z,37.67
2023-05-12T19:37:19.477Z,37.79
2023-05-12T19:39:47.445Z,37.97
2023-05-12T19:42:15.088Z,38.16
2023-05-12T19:44:42.765Z,38.06
2023-05-12T19:47:11.343Z,38.30
2023-05-12T19:49:38.979Z,38.42
2023-05-12T19:52:06.926Z,38.53
2023-05-12T19:54:34.559Z,38.65
2023-05-12T19:57:02.172Z,38.77
2023-05-12T19:59:29.871Z,38.83
2023-05-12T20:01:57.481Z,39.08
2023-05-12T20:04:25.912Z,39.15
2023-05-12T20:06:54.551Z,39.31
2023-05-12T20:09:23.234Z,39.41
2023-05-12T20:11:51.059Z,39.47
2023-05-12T20:14:18.685Z,39.66
2023-05-12T20:16:46.353Z,39.93
2023-05-12T20:19:14.164Z,39.92
2023-05-12T20:21:41.999Z,39.95
2023-05-12T20:24:09.575Z,40.20
2023-05-12T20:26:37.644Z,40.36
2023-05-12T20:29:05.289Z,40.41
2023-05-12T20:31:32.986Z,40.45
2023-05-12T20:34:00.609Z,40.59
2023-05-12T20:36:28.239Z,40.63
2023-05-12T20:38:56.188Z,40.76
2023-05-12T20:41:23.812Z,41.03
2023-05-12T20:43:51.435Z,41.03
2023-05-12T20:46:19.676Z,41.05
2023-05-12T20:48:47.422Z,41.40
2023-05-12T20:51:15.089Z,41.41
2023-05-12T20:53:42.814Z,41.54
2023-05-12T20:56:10.730Z,41.97
2023-05-12T20:58:38.509Z,41.95
2023-05-12T21:01:06.339Z,42.13
2023-05-12T21:03:34.266Z,42.22
2023-05-12T21:06:02.052Z,42.36
2023-05-12T21:08:29.624Z,42.21
2023-05-12T21:10:58.905Z,42.30
2023-05-12T21:13:26.967Z,42.47
2023-05-12T21:15:54.583Z,42.63
2023-05-12T21:18:23.257Z,42.51
2023-05-12T21:20:51.101Z,42.91
2023-05-12T21:23:19.056Z,42.77
2023-05-12T21:25:46.746Z,42.79
2023-05-12T21:28:15.477Z,42.74
2023-05-12T21:30:43.143Z,43.01
2023-05-12T21:33:10.786Z,43.06
2023-05-12T21:35:38.407Z,43.06
2023-05-12T21:38:08.449Z,43.14
2023-05-12T21:40:37.064Z,43.39
2023-05-12T21:43:04.714Z,43.37
2023-05-12T21:45:32.348Z,43.46
2023-05-12T21:48:00.050Z,43.58
2023-05-12T21:50:27.738Z,43.73
2023-05-12T21:52:55.327Z,43.79
2023-05-12T21:55:22.987Z,43.73
2023-05-12T21:57:50.579Z,43.88
2023-05-12T22:00:20.326Z,44.16
2023-05-12T22:02:48.203Z,44.37
2023-05-12T22:05:15.918Z,44.42
2023-05-12T22:07:43.992Z,44.50
2023-05-12T22:10:11.961Z,44.59
2023-05-12T22:12:40.321Z,44.63
2023-05-12T22:15:08.223Z,44.69
2023-05-12T22:17:35.877Z,45.13
2023-05-12T22:20:04.192Z,45.32
2023-05-12T22:22:31.768Z,44.98
2023-05-12T22:24:59.368Z,45.15
2023-05-12T22:27:26.944Z,45.40
2023-05-12T22:29:55.729Z,45.68
2023-05-12T22:32:23.652Z,45.57
2023-05-12T22:34:54.781Z,45.66
2023-05-12T22:37:22.404Z,45.58
2023-05-12T22:39:50.019Z,45.98
2023-05-12T22:42:17.606Z,46.01
2023-05-12T22:44:45.180Z,46.21
2023-05-12T22:47:12.876Z,46.60
2023-05-12T22:49:40.714Z,46.09
2023-05-12T22:52:08.569Z,46.45
2023-05-12T22:54:36.214Z,46.34
2023-05-12T22:57:03.965Z,46.46
2023-05-12T22:59:31.541Z,46.96
2023-05-12T23:01:59.133Z,47.01
2023-05-12T23:04:27.013Z,47.01
2023-05-12T23:06:54.749Z,46.85
2023-05-12T23:09:22.425Z,47.23
2023-05-12T23:11:50.038Z,47.06
2023-05-12T23:14:17.687Z,47.46
2023-05-12T23:16:45.326Z,47.45
2023-05-12T23:19:12.961Z,47.44
2023-05-12T23:21:40.567Z,47.49
2023-05-12T23:24:09.007Z,48.12
2023-05-12T23:26:37.146Z,48.34
2023-05-12T23:29:04.741Z,48.71
2023-05-12T23:31:32.394Z,49.41
2023-05-12T23:33:59.991Z,49.78
2023-05-12T23:36:27.587Z,49.59
2023-05-12T23:38:55.352Z,50.34
2023-05-12T23:41:23.011Z,50.23
2023-05-12T23:43:50.602Z,50.53
2023-05-12T23:46:18.219Z,51.29
2023-05-12T23:48:45.890Z,51.20
2023-05-12T23:51:13.450Z,51.43
2023-05-12T23:53:41.241Z,52.20
2023-05-12T23:56:08.877Z,52.44
2023-05-12T23:58:36.477Z,52.41
